sensor_id;sensor_type;location;lat;lon;timestamp;P1;durP1;ratioP1;P2;durP2;ratioP2
82952;SDS011;74888;40.196;44.560;2024-02-26T00:00:11;7.10;;;1.23;;
82952;SDS011;74888;40.196;44.560;2024-02-26T00:02:37;3.50;;;1.27;;
82952;SDS011;74888;40.196;44.560;2024-02-26T00:07:32;2.22;;;0.90;;
82952;SDS011;74888;40.196;44.560;2024-02-26T00:12:23;3.45;;;1.25;;
82952;SDS011;74888;40.196;44.560;2024-02-26T00:17:14;5.32;;;1.58;;
82952;SDS011;74888;40.196;44.560;2024-02-26T00:22:06;4.68;;;1.65;;
82952;SDS011;74888;40.196;44.560;2024-02-26T00:26:58;6.82;;;1.80;;
82952;SDS011;74888;40.196;44.560;2024-02-26T00:29:24;4.10;;;1.70;;
82952;SDS011;74888;40.196;44.560;2024-02-26T00:34:16;3.60;;;1.42;;
82952;SDS011;74888;40.196;44.560;2024-02-26T00:36:41;5.43;;;1.58;;
82952;SDS011;74888;40.196;44.560;2024-02-26T00:41:33;5.03;;;1.63;;
82952;SDS011;74888;40.196;44.560;2024-02-26T00:46:24;6.55;;;1.83;;
82952;SDS011;74888;40.196;44.560;2024-02-26T00:51:15;4.75;;;1.92;;
82952;SDS011;74888;40.196;44.560;2024-02-26T00:53:41;9.60;;;2.60;;
82952;SDS011;74888;40.196;44.560;2024-02-26T00:56:07;6.88;;;2.25;;
82952;SDS011;74888;40.196;44.560;2024-02-26T00:58:32;6.70;;;2.65;;
82952;SDS011;74888;40.196;44.560;2024-02-26T01:03:24;6.22;;;2.10;;
82952;SDS011;74888;40.196;44.560;2024-02-26T01:05:49;4.47;;;1.80;;
82952;SDS011;74888;40.196;44.560;2024-02-26T01:10:41;6.38;;;2.53;;
82952;SDS011;74888;40.196;44.560;2024-02-26T01:15:32;11.05;;;2.38;;
82952;SDS011;74888;40.196;44.560;2024-02-26T01:20:24;11.30;;;3.00;;
82952;SDS011;74888;40.196;44.560;2024-02-26T01:22:49;9.38;;;2.85;;
82952;SDS011;74888;40.196;44.560;2024-02-26T01:25:15;8.27;;;3.15;;
82952;SDS011;74888;40.196;44.560;2024-02-26T01:27:41;9.38;;;4.03;;
82952;SDS011;74888;40.196;44.560;2024-02-26T01:30:09;14.18;;;5.32;;
82952;SDS011;74888;40.196;44.560;2024-02-26T01:32:35;16.60;;;8.80;;
82952;SDS011;74888;40.196;44.560;2024-02-26T01:37:28;7.90;;;2.72;;
82952;SDS011;74888;40.196;44.560;2024-02-26T01:39:57;9.98;;;2.90;;
82952;SDS011;74888;40.196;44.560;2024-02-26T01:42:22;9.68;;;2.88;;
82952;SDS011;74888;40.196;44.560;2024-02-26T01:44:48;8.90;;;2.70;;
82952;SDS011;74888;40.196;44.560;2024-02-26T01:47:14;7.70;;;2.60;;
82952;SDS011;74888;40.196;44.560;2024-02-26T01:49:39;6.60;;;2.70;;
82952;SDS011;74888;40.196;44.560;2024-02-26T01:52:06;7.70;;;3.10;;
82952;SDS011;74888;40.196;44.560;2024-02-26T01:54:34;7.55;;;3.22;;
82952;SDS011;74888;40.196;44.560;2024-02-26T01:57:02;8.38;;;3.10;;
82952;SDS011;74888;40.196;44.560;2024-02-26T01:59:29;8.32;;;2.95;;
82952;SDS011;74888;40.196;44.560;2024-02-26T02:01:55;7.82;;;3.22;;
82952;SDS011;74888;40.196;44.560;2024-02-26T02:04:24;6.85;;;2.30;;
82952;SDS011;74888;40.196;44.560;2024-02-26T02:06:50;5.82;;;2.10;;
82952;SDS011;74888;40.196;44.560;2024-02-26T02:09:17;9.88;;;2.90;;
82952;SDS011;74888;40.196;44.560;2024-02-26T02:11:43;8.35;;;3.28;;
82952;SDS011;74888;40.196;44.560;2024-02-26T02:14:09;5.95;;;2.10;;
82952;SDS011;74888;40.196;44.560;2024-02-26T02:16:35;7.65;;;2.67;;
82952;SDS011;74888;40.196;44.560;2024-02-26T02:19:01;7.70;;;2.40;;
82952;SDS011;74888;40.196;44.560;2024-02-26T02:21:27;6.00;;;2.08;;
82952;SDS011;74888;40.196;44.560;2024-02-26T02:23:52;8.25;;;3.17;;
82952;SDS011;74888;40.196;44.560;2024-02-26T02:26:18;5.38;;;2.47;;
82952;SDS011;74888;40.196;44.560;2024-02-26T02:31:10;6.75;;;2.42;;
82952;SDS011;74888;40.196;44.560;2024-02-26T02:33:36;7.47;;;2.63;;
82952;SDS011;74888;40.196;44.560;2024-02-26T02:36:02;8.68;;;3.03;;
82952;SDS011;74888;40.196;44.560;2024-02-26T02:38:28;8.32;;;3.28;;
82952;SDS011;74888;40.196;44.560;2024-02-26T02:40:55;7.93;;;3.15;;
82952;SDS011;74888;40.196;44.560;2024-02-26T02:43:21;7.53;;;2.95;;
82952;SDS011;74888;40.196;44.560;2024-02-26T02:45:47;7.55;;;2.90;;
82952;SDS011;74888;40.196;44.560;2024-02-26T02:48:12;9.85;;;3.50;;
82952;SDS011;74888;40.196;44.560;2024-02-26T02:50:39;9.52;;;2.63;;
82952;SDS011;74888;40.196;44.560;2024-02-26T02:53:05;6.72;;;2.40;;
82952;SDS011;74888;40.196;44.560;2024-02-26T02:55:31;7.63;;;2.97;;
82952;SDS011;74888;40.196;44.560;2024-02-26T02:57:56;7.50;;;2.60;;
82952;SDS011;74888;40.196;44.560;2024-02-26T03:00:22;8.02;;;2.88;;
82952;SDS011;74888;40.196;44.560;2024-02-26T03:02:48;7.72;;;2.63;;
82952;SDS011;74888;40.196;44.560;2024-02-26T03:05:14;6.32;;;1.85;;
82952;SDS011;74888;40.196;44.560;2024-02-26T03:07:40;5.60;;;2.15;;
82952;SDS011;74888;40.196;44.560;2024-02-26T03:10:06;6.25;;;2.40;;
82952;SDS011;74888;40.196;44.560;2024-02-26T03:14:58;7.20;;;2.53;;
82952;SDS011;74888;40.196;44.560;2024-02-26T03:17:27;8.18;;;2.15;;
82952;SDS011;74888;40.196;44.560;2024-02-26T03:19:56;6.05;;;2.22;;
82952;SDS011;74888;40.196;44.560;2024-02-26T03:22:22;5.38;;;2.03;;
82952;SDS011;74888;40.196;44.560;2024-02-26T03:24:47;6.00;;;2.10;;
82952;SDS011;74888;40.196;44.560;2024-02-26T03:27:13;7.03;;;2.25;;
82952;SDS011;74888;40.196;44.560;2024-02-26T03:29:39;6.05;;;2.05;;
82952;SDS011;74888;40.196;44.560;2024-02-26T03:32:05;5.95;;;2.35;;
82952;SDS011;74888;40.196;44.560;2024-02-26T03:34:32;9.65;;;2.65;;
82952;SDS011;74888;40.196;44.560;2024-02-26T03:36:59;16.20;;;3.40;;
82952;SDS011;74888;40.196;44.560;2024-02-26T03:39:25;9.55;;;3.20;;
82952;SDS011;74888;40.196;44.560;2024-02-26T03:41:51;6.68;;;2.92;;
82952;SDS011;74888;40.196;44.560;2024-02-26T03:46:43;6.80;;;2.25;;
82952;SDS011;74888;40.196;44.560;2024-02-26T03:49:09;8.90;;;3.17;;
82952;SDS011;74888;40.196;44.560;2024-02-26T03:51:35;10.57;;;2.70;;
82952;SDS011;74888;40.196;44.560;2024-02-26T03:54:01;7.00;;;2.70;;
82952;SDS011;74888;40.196;44.560;2024-02-26T03:58:53;8.75;;;4.13;;
82952;SDS011;74888;40.196;44.560;2024-02-26T04:03:44;17.10;;;5.40;;
82952;SDS011;74888;40.196;44.560;2024-02-26T04:06:10;15.57;;;6.68;;
82952;SDS011;74888;40.196;44.560;2024-02-26T04:08:39;17.08;;;5.65;;
82952;SDS011;74888;40.196;44.560;2024-02-26T04:13:34;15.25;;;5.07;;
82952;SDS011;74888;40.196;44.560;2024-02-26T04:16:00;19.48;;;6.15;;
82952;SDS011;74888;40.196;44.560;2024-02-26T04:18:28;14.73;;;6.55;;
82952;SDS011;74888;40.196;44.560;2024-02-26T04:20:54;18.98;;;6.80;;
82952;SDS011;74888;40.196;44.560;2024-02-26T04:23:20;19.38;;;5.50;;
82952;SDS011;74888;40.196;44.560;2024-02-26T04:25:45;16.00;;;6.20;;
82952;SDS011;74888;40.196;44.560;2024-02-26T04:28:12;17.92;;;5.10;;
82952;SDS011;74888;40.196;44.560;2024-02-26T04:30:37;15.75;;;4.53;;
82952;SDS011;74888;40.196;44.560;2024-02-26T04:33:03;16.13;;;4.57;;
82952;SDS011;74888;40.196;44.560;2024-02-26T04:35:29;16.60;;;4.57;;
82952;SDS011;74888;40.196;44.560;2024-02-26T04:37:55;13.75;;;4.50;;
82952;SDS011;74888;40.196;44.560;2024-02-26T04:40:20;13.57;;;4.75;;
82952;SDS011;74888;40.196;44.560;2024-02-26T04:42:46;12.25;;;3.72;;
82952;SDS011;74888;40.196;44.560;2024-02-26T04:45:12;22.35;;;5.50;;
82952;SDS011;74888;40.196;44.560;2024-02-26T04:50:03;21.48;;;5.47;;
82952;SDS011;74888;40.196;44.560;2024-02-26T04:52:29;15.65;;;5.55;;
82952;SDS011;74888;40.196;44.560;2024-02-26T04:57:21;15.30;;;5.55;;
82952;SDS011;74888;40.196;44.560;2024-02-26T04:59:47;15.50;;;5.38;;
82952;SDS011;74888;40.196;44.560;2024-02-26T05:04:38;10.68;;;4.68;;
82952;SDS011;74888;40.196;44.560;2024-02-26T05:09:29;9.73;;;4.38;;
82952;SDS011;74888;40.196;44.560;2024-02-26T05:11:55;16.50;;;4.60;;
82952;SDS011;74888;40.196;44.560;2024-02-26T05:14:21;12.80;;;4.43;;
82952;SDS011;74888;40.196;44.560;2024-02-26T05:19:12;12.40;;;4.22;;
82952;SDS011;74888;40.196;44.560;2024-02-26T05:24:03;14.10;;;5.10;;
82952;SDS011;74888;40.196;44.560;2024-02-26T05:28:54;21.65;;;6.28;;
82952;SDS011;74888;40.196;44.560;2024-02-26T05:31:24;12.40;;;5.28;;
82952;SDS011;74888;40.196;44.560;2024-02-26T05:33:50;18.10;;;7.63;;
82952;SDS011;74888;40.196;44.560;2024-02-26T05:38:47;11.93;;;5.38;;
82952;SDS011;74888;40.196;44.560;2024-02-26T05:41:17;16.15;;;5.60;;
82952;SDS011;74888;40.196;44.560;2024-02-26T05:43:51;18.70;;;5.38;;
82952;SDS011;74888;40.196;44.560;2024-02-26T05:46:18;15.77;;;5.88;;
82952;SDS011;74888;40.196;44.560;2024-02-26T05:48:44;13.38;;;5.95;;
82952;SDS011;74888;40.196;44.560;2024-02-26T05:51:12;13.40;;;4.85;;
82952;SDS011;74888;40.196;44.560;2024-02-26T05:56:03;13.25;;;4.10;;
82952;SDS011;74888;40.196;44.560;2024-02-26T06:00:55;8.07;;;3.10;;
82952;SDS011;74888;40.196;44.560;2024-02-26T06:03:20;12.65;;;3.47;;
82952;SDS011;74888;40.196;44.560;2024-02-26T06:08:11;16.65;;;5.57;;
82952;SDS011;74888;40.196;44.560;2024-02-26T06:13:04;18.63;;;6.38;;
82952;SDS011;74888;40.196;44.560;2024-02-26T06:17:55;23.25;;;7.35;;
82952;SDS011;74888;40.196;44.560;2024-02-26T06:22:46;22.77;;;7.70;;
82952;SDS011;74888;40.196;44.560;2024-02-26T06:27:37;24.20;;;7.32;;
82952;SDS011;74888;40.196;44.560;2024-02-26T06:32:28;20.83;;;6.55;;
82952;SDS011;74888;40.196;44.560;2024-02-26T06:37:20;13.88;;;5.95;;
82952;SDS011;74888;40.196;44.560;2024-02-26T06:42:11;24.33;;;6.78;;
82952;SDS011;74888;40.196;44.560;2024-02-26T06:47:02;10.50;;;4.47;;
82952;SDS011;74888;40.196;44.560;2024-02-26T06:51:53;13.57;;;3.95;;
82952;SDS011;74888;40.196;44.560;2024-02-26T06:54:19;19.15;;;5.00;;
82952;SDS011;74888;40.196;44.560;2024-02-26T06:59:11;14.15;;;5.03;;
82952;SDS011;74888;40.196;44.560;2024-02-26T07:04:02;14.02;;;5.25;;
82952;SDS011;74888;40.196;44.560;2024-02-26T07:08:56;23.80;;;6.25;;
82952;SDS011;74888;40.196;44.560;2024-02-26T07:13:47;9.43;;;3.90;;
82952;SDS011;74888;40.196;44.560;2024-02-26T07:16:14;9.77;;;3.53;;
82952;SDS011;74888;40.196;44.560;2024-02-26T07:21:06;9.82;;;3.30;;
82952;SDS011;74888;40.196;44.560;2024-02-26T07:25:57;10.00;;;3.72;;
82952;SDS011;74888;40.196;44.560;2024-02-26T07:30:49;9.68;;;4.47;;
82952;SDS011;74888;40.196;44.560;2024-02-26T07:33:14;10.15;;;3.92;;
82952;SDS011;74888;40.196;44.560;2024-02-26T07:38:06;11.25;;;4.25;;
82952;SDS011;74888;40.196;44.560;2024-02-26T07:42:57;13.15;;;4.05;;
82952;SDS011;74888;40.196;44.560;2024-02-26T07:47:48;13.05;;;4.60;;
82952;SDS011;74888;40.196;44.560;2024-02-26T07:52:39;9.90;;;3.42;;
82952;SDS011;74888;40.196;44.560;2024-02-26T07:57:32;14.10;;;4.07;;
82952;SDS011;74888;40.196;44.560;2024-02-26T08:00:01;14.60;;;3.58;;
82952;SDS011;74888;40.196;44.560;2024-02-26T08:02:28;15.88;;;4.32;;
82952;SDS011;74888;40.196;44.560;2024-02-26T08:04:54;15.60;;;4.10;;
82952;SDS011;74888;40.196;44.560;2024-02-26T08:09:46;12.88;;;3.63;;
82952;SDS011;74888;40.196;44.560;2024-02-26T08:12:12;14.07;;;4.22;;
82952;SDS011;74888;40.196;44.560;2024-02-26T08:14:38;15.95;;;5.05;;
82952;SDS011;74888;40.196;44.560;2024-02-26T08:17:04;11.88;;;3.42;;
82952;SDS011;74888;40.196;44.560;2024-02-26T08:21:55;11.25;;;3.75;;
82952;SDS011;74888;40.196;44.560;2024-02-26T08:26:46;14.05;;;4.00;;
82952;SDS011;74888;40.196;44.560;2024-02-26T08:29:11;10.52;;;4.00;;
82952;SDS011;74888;40.196;44.560;2024-02-26T08:31:37;11.43;;;3.65;;
82952;SDS011;74888;40.196;44.560;2024-02-26T08:36:29;10.32;;;3.60;;
82952;SDS011;74888;40.196;44.560;2024-02-26T08:38:59;10.98;;;3.58;;
82952;SDS011;74888;40.196;44.560;2024-02-26T08:41:24;9.77;;;3.80;;
82952;SDS011;74888;40.196;44.560;2024-02-26T08:43:50;12.57;;;3.70;;
82952;SDS011;74888;40.196;44.560;2024-02-26T08:46:15;13.00;;;3.80;;
82952;SDS011;74888;40.196;44.560;2024-02-26T08:48:41;12.07;;;3.45;;
82952;SDS011;74888;40.196;44.560;2024-02-26T08:51:07;8.43;;;3.70;;
82952;SDS011;74888;40.196;44.560;2024-02-26T08:53:34;11.55;;;3.70;;
82952;SDS011;74888;40.196;44.560;2024-02-26T08:56:00;9.85;;;3.72;;
82952;SDS011;74888;40.196;44.560;2024-02-26T08:58:27;11.63;;;3.20;;
82952;SDS011;74888;40.196;44.560;2024-02-26T09:00:53;8.93;;;3.53;;
82952;SDS011;74888;40.196;44.560;2024-02-26T09:03:19;12.18;;;3.90;;
82952;SDS011;74888;40.196;44.560;2024-02-26T09:05:45;12.43;;;3.72;;
82952;SDS011;74888;40.196;44.560;2024-02-26T09:08:11;10.90;;;4.00;;
82952;SDS011;74888;40.196;44.560;2024-02-26T09:10:38;12.02;;;4.20;;
82952;SDS011;74888;40.196;44.560;2024-02-26T09:13:04;9.82;;;3.78;;
82952;SDS011;74888;40.196;44.560;2024-02-26T09:15:30;10.10;;;3.97;;
82952;SDS011;74888;40.196;44.560;2024-02-26T09:17:56;18.70;;;5.68;;
82952;SDS011;74888;40.196;44.560;2024-02-26T09:20:21;13.35;;;5.35;;
82952;SDS011;74888;40.196;44.560;2024-02-26T09:22:48;8.95;;;3.30;;
82952;SDS011;74888;40.196;44.560;2024-02-26T09:25:15;11.40;;;3.42;;
82952;SDS011;74888;40.196;44.560;2024-02-26T09:27:42;12.05;;;4.25;;
82952;SDS011;74888;40.196;44.560;2024-02-26T09:30:11;11.20;;;3.90;;
82952;SDS011;74888;40.196;44.560;2024-02-26T09:32:37;15.55;;;4.63;;
82952;SDS011;74888;40.196;44.560;2024-02-26T09:35:04;14.60;;;3.78;;
82952;SDS011;74888;40.196;44.560;2024-02-26T09:37:33;14.27;;;4.85;;
82952;SDS011;74888;40.196;44.560;2024-02-26T09:40:02;12.73;;;5.05;;
82952;SDS011;74888;40.196;44.560;2024-02-26T09:42:28;9.50;;;3.55;;
82952;SDS011;74888;40.196;44.560;2024-02-26T09:44:56;11.18;;;3.88;;
82952;SDS011;74888;40.196;44.560;2024-02-26T09:47:28;13.27;;;4.00;;
82952;SDS011;74888;40.196;44.560;2024-02-26T09:49:56;11.65;;;4.35;;
82952;SDS011;74888;40.196;44.560;2024-02-26T09:52:26;12.65;;;3.97;;
82952;SDS011;74888;40.196;44.560;2024-02-26T09:54:54;13.80;;;5.25;;
82952;SDS011;74888;40.196;44.560;2024-02-26T09:57:20;14.23;;;5.13;;
82952;SDS011;74888;40.196;44.560;2024-02-26T09:59:49;11.32;;;4.45;;
82952;SDS011;74888;40.196;44.560;2024-02-26T10:02:18;19.67;;;5.10;;
82952;SDS011;74888;40.196;44.560;2024-02-26T10:04:45;14.35;;;4.07;;
82952;SDS011;74888;40.196;44.560;2024-02-26T10:07:12;12.65;;;4.45;;
82952;SDS011;74888;40.196;44.560;2024-02-26T10:09:39;13.88;;;4.32;;
82952;SDS011;74888;40.196;44.560;2024-02-26T10:12:06;12.27;;;4.40;;
82952;SDS011;74888;40.196;44.560;2024-02-26T10:14:35;14.00;;;4.55;;
82952;SDS011;74888;40.196;44.560;2024-02-26T10:17:01;10.75;;;4.20;;
82952;SDS011;74888;40.196;44.560;2024-02-26T10:19:28;10.60;;;4.22;;
82952;SDS011;74888;40.196;44.560;2024-02-26T10:21:58;16.55;;;5.22;;
82952;SDS011;74888;40.196;44.560;2024-02-26T10:24:26;12.25;;;4.43;;
82952;SDS011;74888;40.196;44.560;2024-02-26T10:26:53;17.45;;;5.57;;
82952;SDS011;74888;40.196;44.560;2024-02-26T10:29:21;11.68;;;4.82;;
82952;SDS011;74888;40.196;44.560;2024-02-26T10:31:48;12.38;;;4.60;;
82952;SDS011;74888;40.196;44.560;2024-02-26T10:34:15;13.25;;;4.47;;
82952;SDS011;74888;40.196;44.560;2024-02-26T10:36:41;12.30;;;4.93;;
82952;SDS011;74888;40.196;44.560;2024-02-26T10:39:07;11.32;;;4.22;;
82952;SDS011;74888;40.196;44.560;2024-02-26T10:41:33;12.90;;;4.40;;
82952;SDS011;74888;40.196;44.560;2024-02-26T10:43:59;12.25;;;4.93;;
82952;SDS011;74888;40.196;44.560;2024-02-26T10:46:25;14.27;;;4.55;;
82952;SDS011;74888;40.196;44.560;2024-02-26T10:48:52;11.07;;;4.55;;
82952;SDS011;74888;40.196;44.560;2024-02-26T10:51:28;12.98;;;4.32;;
82952;SDS011;74888;40.196;44.560;2024-02-26T10:53:55;10.82;;;4.30;;
82952;SDS011;74888;40.196;44.560;2024-02-26T10:56:28;16.60;;;4.63;;
82952;SDS011;74888;40.196;44.560;2024-02-26T10:58:58;11.70;;;4.50;;
82952;SDS011;74888;40.196;44.560;2024-02-26T11:01:24;16.00;;;5.43;;
82952;SDS011;74888;40.196;44.560;2024-02-26T11:03:52;12.65;;;4.30;;
82952;SDS011;74888;40.196;44.560;2024-02-26T11:06:19;10.90;;;4.32;;
82952;SDS011;74888;40.196;44.560;2024-02-26T11:08:52;12.93;;;4.50;;
82952;SDS011;74888;40.196;44.560;2024-02-26T11:11:20;13.05;;;4.55;;
82952;SDS011;74888;40.196;44.560;2024-02-26T11:13:47;11.50;;;4.22;;
82952;SDS011;74888;40.196;44.560;2024-02-26T11:16:19;12.48;;;4.75;;
82952;SDS011;74888;40.196;44.560;2024-02-26T11:18:47;13.15;;;5.22;;
82952;SDS011;74888;40.196;44.560;2024-02-26T11:21:16;13.05;;;4.63;;
82952;SDS011;74888;40.196;44.560;2024-02-26T11:23:52;10.63;;;3.95;;
82952;SDS011;74888;40.196;44.560;2024-02-26T11:26:18;12.02;;;4.85;;
82952;SDS011;74888;40.196;44.560;2024-02-26T11:28:45;17.90;;;6.32;;
82952;SDS011;74888;40.196;44.560;2024-02-26T11:31:12;11.82;;;4.30;;
82952;SDS011;74888;40.196;44.560;2024-02-26T11:33:39;13.40;;;5.10;;
82952;SDS011;74888;40.196;44.560;2024-02-26T11:36:11;14.68;;;5.45;;
82952;SDS011;74888;40.196;44.560;2024-02-26T11:38:39;11.70;;;4.55;;
82952;SDS011;74888;40.196;44.560;2024-02-26T11:41:05;16.02;;;4.88;;
82952;SDS011;74888;40.196;44.560;2024-02-26T11:43:52;15.60;;;7.60;;
82952;SDS011;74888;40.196;44.560;2024-02-26T11:46:25;13.70;;;4.65;;
82952;SDS011;74888;40.196;44.560;2024-02-26T11:49:02;13.43;;;5.00;;
82952;SDS011;74888;40.196;44.560;2024-02-26T11:51:33;12.02;;;5.20;;
82952;SDS011;74888;40.196;44.560;2024-02-26T11:54:02;11.50;;;4.82;;
82952;SDS011;74888;40.196;44.560;2024-02-26T11:56:28;11.38;;;5.07;;
82952;SDS011;74888;40.196;44.560;2024-02-26T11:59:01;14.10;;;4.85;;
82952;SDS011;74888;40.196;44.560;2024-02-26T12:04:21;13.27;;;4.60;;
82952;SDS011;74888;40.196;44.560;2024-02-26T12:06:57;16.35;;;6.07;;
82952;SDS011;74888;40.196;44.560;2024-02-26T12:09:33;19.15;;;5.03;;
82952;SDS011;74888;40.196;44.560;2024-02-26T12:12:07;12.02;;;4.88;;
82952;SDS011;74888;40.196;44.560;2024-02-26T12:14:37;12.35;;;4.35;;
82952;SDS011;74888;40.196;44.560;2024-02-26T12:17:22;11.07;;;5.03;;
82952;SDS011;74888;40.196;44.560;2024-02-26T12:19:49;17.55;;;6.32;;
82952;SDS011;74888;40.196;44.560;2024-02-26T12:22:19;13.02;;;5.15;;
82952;SDS011;74888;40.196;44.560;2024-02-26T12:24:45;9.80;;;5.10;;
82952;SDS011;74888;40.196;44.560;2024-02-26T12:27:11;11.95;;;4.43;;
82952;SDS011;74888;40.196;44.560;2024-02-26T12:29:36;14.13;;;4.88;;
82952;SDS011;74888;40.196;44.560;2024-02-26T12:32:03;24.00;;;9.05;;
82952;SDS011;74888;40.196;44.560;2024-02-26T12:34:30;20.80;;;12.68;;
82952;SDS011;74888;40.196;44.560;2024-02-26T12:36:56;11.30;;;5.35;;
82952;SDS011;74888;40.196;44.560;2024-02-26T12:39:22;13.43;;;4.45;;
82952;SDS011;74888;40.196;44.560;2024-02-26T12:41:48;20.60;;;5.75;;
82952;SDS011;74888;40.196;44.560;2024-02-26T12:44:17;14.35;;;5.25;;
82952;SDS011;74888;40.196;44.560;2024-02-26T12:46:43;13.65;;;5.72;;
82952;SDS011;74888;40.196;44.560;2024-02-26T12:49:09;12.18;;;5.65;;
82952;SDS011;74888;40.196;44.560;2024-02-26T12:51:41;21.63;;;6.57;;
82952;SDS011;74888;40.196;44.560;2024-02-26T12:54:07;13.93;;;5.38;;
82952;SDS011;74888;40.196;44.560;2024-02-26T12:56:33;12.20;;;5.07;;
82952;SDS011;74888;40.196;44.560;2024-02-26T12:58:59;14.25;;;5.55;;
82952;SDS011;74888;40.196;44.560;2024-02-26T13:01:27;17.00;;;5.45;;
82952;SDS011;74888;40.196;44.560;2024-02-26T13:03:53;13.75;;;5.88;;
82952;SDS011;74888;40.196;44.560;2024-02-26T13:06:19;23.77;;;9.85;;
82952;SDS011;74888;40.196;44.560;2024-02-26T13:08:47;12.27;;;4.88;;
82952;SDS011;74888;40.196;44.560;2024-02-26T13:11:13;16.92;;;5.85;;
82952;SDS011;74888;40.196;44.560;2024-02-26T13:13:39;15.25;;;5.57;;
82952;SDS011;74888;40.196;44.560;2024-02-26T13:16:05;13.40;;;5.93;;
82952;SDS011;74888;40.196;44.560;2024-02-26T13:18:33;15.23;;;5.63;;
82952;SDS011;74888;40.196;44.560;2024-02-26T13:21:09;12.63;;;4.90;;
82952;SDS011;74888;40.196;44.560;2024-02-26T13:23:37;14.80;;;5.50;;
82952;SDS011;74888;40.196;44.560;2024-02-26T13:26:06;12.73;;;4.82;;
82952;SDS011;74888;40.196;44.560;2024-02-26T13:28:33;15.48;;;6.57;;
82952;SDS011;74888;40.196;44.560;2024-02-26T13:30:59;18.27;;;5.57;;
82952;SDS011;74888;40.196;44.560;2024-02-26T13:33:29;11.15;;;5.15;;
82952;SDS011;74888;40.196;44.560;2024-02-26T13:35:55;13.73;;;5.32;;
82952;SDS011;74888;40.196;44.560;2024-02-26T13:38:22;11.68;;;5.10;;
82952;SDS011;74888;40.196;44.560;2024-02-26T13:40:49;14.93;;;5.55;;
82952;SDS011;74888;40.196;44.560;2024-02-26T13:43:16;20.58;;;5.85;;
82952;SDS011;74888;40.196;44.560;2024-02-26T13:45:41;13.48;;;5.88;;
82952;SDS011;74888;40.196;44.560;2024-02-26T13:48:09;22.13;;;5.82;;
82952;SDS011;74888;40.196;44.560;2024-02-26T13:50:41;17.02;;;5.07;;
82952;SDS011;74888;40.196;44.560;2024-02-26T13:53:11;18.63;;;6.13;;
82952;SDS011;74888;40.196;44.560;2024-02-26T13:55:37;16.55;;;5.90;;
82952;SDS011;74888;40.196;44.560;2024-02-26T13:58:05;23.92;;;9.35;;
82952;SDS011;74888;40.196;44.560;2024-02-26T14:00:32;14.27;;;5.85;;
82952;SDS011;74888;40.196;44.560;2024-02-26T14:02:59;24.02;;;11.45;;
82952;SDS011;74888;40.196;44.560;2024-02-26T14:05:25;19.08;;;7.75;;
82952;SDS011;74888;40.196;44.560;2024-02-26T14:07:51;17.17;;;6.47;;
82952;SDS011;74888;40.196;44.560;2024-02-26T14:10:17;18.00;;;7.03;;
82952;SDS011;74888;40.196;44.560;2024-02-26T14:12:43;12.98;;;5.63;;
82952;SDS011;74888;40.196;44.560;2024-02-26T14:15:09;16.27;;;7.20;;
82952;SDS011;74888;40.196;44.560;2024-02-26T14:17:35;26.73;;;9.98;;
82952;SDS011;74888;40.196;44.560;2024-02-26T14:20:02;18.00;;;7.55;;
82952;SDS011;74888;40.196;44.560;2024-02-26T14:22:29;23.00;;;8.05;;
82952;SDS011;74888;40.196;44.560;2024-02-26T14:24:57;25.00;;;7.32;;
82952;SDS011;74888;40.196;44.560;2024-02-26T14:27:24;17.25;;;7.05;;
82952;SDS011;74888;40.196;44.560;2024-02-26T14:29:50;17.48;;;6.63;;
82952;SDS011;74888;40.196;44.560;2024-02-26T14:32:15;14.80;;;6.65;;
82952;SDS011;74888;40.196;44.560;2024-02-26T14:34:42;18.60;;;6.80;;
82952;SDS011;74888;40.196;44.560;2024-02-26T14:37:08;20.38;;;6.93;;
82952;SDS011;74888;40.196;44.560;2024-02-26T14:39:34;14.13;;;5.97;;
82952;SDS011;74888;40.196;44.560;2024-02-26T14:42:00;15.85;;;7.57;;
82952;SDS011;74888;40.196;44.560;2024-02-26T14:44:26;20.80;;;7.68;;
82952;SDS011;74888;40.196;44.560;2024-02-26T14:46:52;15.70;;;7.20;;
82952;SDS011;74888;40.196;44.560;2024-02-26T14:49:18;27.42;;;9.98;;
82952;SDS011;74888;40.196;44.560;2024-02-26T14:51:44;26.58;;;10.90;;
82952;SDS011;74888;40.196;44.560;2024-02-26T14:54:11;25.13;;;10.40;;
82952;SDS011;74888;40.196;44.560;2024-02-26T14:56:37;25.55;;;9.82;;
82952;SDS011;74888;40.196;44.560;2024-02-26T14:59:03;32.22;;;11.98;;
82952;SDS011;74888;40.196;44.560;2024-02-26T15:01:29;24.92;;;9.65;;
82952;SDS011;74888;40.196;44.560;2024-02-26T15:03:55;38.30;;;12.15;;
82952;SDS011;74888;40.196;44.560;2024-02-26T15:06:20;36.90;;;12.57;;
82952;SDS011;74888;40.196;44.560;2024-02-26T15:08:47;23.48;;;8.75;;
82952;SDS011;74888;40.196;44.560;2024-02-26T15:11:12;22.35;;;8.77;;
82952;SDS011;74888;40.196;44.560;2024-02-26T15:13:38;27.35;;;10.02;;
82952;SDS011;74888;40.196;44.560;2024-02-26T15:16:05;22.48;;;10.75;;
82952;SDS011;74888;40.196;44.560;2024-02-26T15:18:31;19.73;;;9.82;;
82952;SDS011;74888;40.196;44.560;2024-02-26T15:20:56;19.95;;;8.32;;
82952;SDS011;74888;40.196;44.560;2024-02-26T15:23:22;22.13;;;9.80;;
82952;SDS011;74888;40.196;44.560;2024-02-26T15:25:48;21.23;;;9.55;;
82952;SDS011;74888;40.196;44.560;2024-02-26T15:28:13;25.10;;;9.27;;
82952;SDS011;74888;40.196;44.560;2024-02-26T15:30:40;29.17;;;10.43;;
82952;SDS011;74888;40.196;44.560;2024-02-26T15:33:06;19.58;;;8.73;;
82952;SDS011;74888;40.196;44.560;2024-02-26T15:35:32;23.52;;;8.35;;
82952;SDS011;74888;40.196;44.560;2024-02-26T15:37:57;20.17;;;9.50;;
82952;SDS011;74888;40.196;44.560;2024-02-26T15:40:23;31.80;;;10.85;;
82952;SDS011;74888;40.196;44.560;2024-02-26T15:42:49;29.40;;;11.38;;
82952;SDS011;74888;40.196;44.560;2024-02-26T15:45:15;24.52;;;10.15;;
82952;SDS011;74888;40.196;44.560;2024-02-26T15:47:41;24.63;;;11.55;;
82952;SDS011;74888;40.196;44.560;2024-02-26T15:50:07;22.75;;;9.95;;
82952;SDS011;74888;40.196;44.560;2024-02-26T15:52:35;26.83;;;10.52;;
82952;SDS011;74888;40.196;44.560;2024-02-26T15:55:03;22.50;;;9.88;;
82952;SDS011;74888;40.196;44.560;2024-02-26T15:57:30;23.67;;;10.77;;
82952;SDS011;74888;40.196;44.560;2024-02-26T15:59:55;23.45;;;10.88;;
82952;SDS011;74888;40.196;44.560;2024-02-26T16:02:25;27.67;;;13.82;;
82952;SDS011;74888;40.196;44.560;2024-02-26T16:04:51;36.78;;;16.65;;
82952;SDS011;74888;40.196;44.560;2024-02-26T16:07:19;27.25;;;13.55;;
82952;SDS011;74888;40.196;44.560;2024-02-26T16:09:52;36.05;;;13.15;;
82952;SDS011;74888;40.196;44.560;2024-02-26T16:12:20;28.95;;;13.50;;
82952;SDS011;74888;40.196;44.560;2024-02-26T16:17:30;29.75;;;11.68;;
82952;SDS011;74888;40.196;44.560;2024-02-26T16:20:02;25.00;;;9.35;;
82952;SDS011;74888;40.196;44.560;2024-02-26T16:22:29;27.52;;;11.10;;
82952;SDS011;74888;40.196;44.560;2024-02-26T16:24:57;27.15;;;11.13;;
82952;SDS011;74888;40.196;44.560;2024-02-26T16:27:23;30.35;;;11.30;;
82952;SDS011;74888;40.196;44.560;2024-02-26T16:29:49;26.63;;;10.73;;
82952;SDS011;74888;40.196;44.560;2024-02-26T16:32:15;26.23;;;10.55;;
82952;SDS011;74888;40.196;44.560;2024-02-26T16:34:40;27.25;;;11.13;;
82952;SDS011;74888;40.196;44.560;2024-02-26T16:37:10;26.33;;;11.27;;
82952;SDS011;74888;40.196;44.560;2024-02-26T16:39:39;27.23;;;11.02;;
82952;SDS011;74888;40.196;44.560;2024-02-26T16:42:06;21.17;;;10.20;;